Time;durP1;ratioP1;P1;durP2;ratioP2;P2;SDS_P1;SDS_P2;PMS_P1;PMS_P2;Temp;Humidity;BMP_temperature;BMP_pressure;BME280_temperature;BME280_humidity;BME280_pressure;Samples;Min_cycle;Max_cycle;Signal;HPM_P1;HPM_P2
2024/03/28 00:04:16;;;;;;;6.7;3.1;;;;;;;10.27;76.35;96431.666666667;;;;
2024/03/28 00:15:16;;;;;;;6.7;3.1;;;;;;;10.34;77.08;96415;;;;
2024/03/28 00:25:16;;;;;;;9.6;3.6;;;;;;;10.44;76.68;96396.666666667;;;;
2024/03/28 00:35:16;;;;;;;9.6;3.6;;;;;;;10.59;77.43;96396.666666667;;;;
2024/03/28 00:45:16;;;;;;;9.6;3.6;;;;;;;10.69;77.03;96383.333333333;;;;
2024/03/28 00:56:16;;;;;;;11.4;4.7;;;;;;;10.83;77.46;96368.333333333;;;;
2024/03/28 01:06:16;;;;;;;11.4;4.7;;;;;;;10.92;77.02;96363.333333333;;;;
2024/03/28 01:16:16;;;;;;;11.4;4.7;;;;;;;11.06;76.61;96340;;;;
2024/03/28 01:26:16;;;;;;;10.4;4.1;;;;;;;11.14;76.49;96335;;;;
2024/03/28 01:36:16;;;;;;;10.4;4.1;;;;;;;11.07;76.16;96341.666666667;;;;
2024/03/28 01:46:17;;;;;;;10.4;4.1;;;;;;;10.97;76.28;96346.666666667;;;;
2024/03/28 01:56:16;;;;;;;7.6;3.3;;;;;;;10.74;76.87;96348.333333333;;;;
2024/03/28 02:07:16;;;;;;;7.6;3.3;;;;;;;10.57;77.87;96335;;;;
2024/03/28 02:18:16;;;;;;;7.6;3.3;;;;;;;10.54;79.13;96321.666666667;;;;
2024/03/28 02:28:16;;;;;;;7.4;3.6;;;;;;;10.56;78.83;96308.333333333;;;;
2024/03/28 02:39:16;;;;;;;7.4;3.6;;;;;;;10.5;78.79;96300;;;;
2024/03/28 02:50:16;;;;;;;7;3.3;;;;;;;10.44;78.96;96308.333333333;;;;
2024/03/28 03:01:16;;;;;;;7;3.3;;;;;;;10.49;79.34;96280;;;;
2024/03/28 03:11:16;;;;;;;7;3.3;;;;;;;10.44;79.63;96266.666666667;;;;
2024/03/28 03:21:16;;;;;;;10.5;4.4;;;;;;;10.4;79.75;96251.666666667;;;;
2024/03/28 03:43:16;;;;;;;10.5;4.4;;;;;;;10.43;80.19;96213.333333333;;;;
2024/03/28 03:54:16;;;;;;;12.4;4.5;;;;;;;10.52;80.12;96225;;;;
2024/03/28 04:04:16;;;;;;;12.4;4.5;;;;;;;10.55;79.92;96205;;;;
2024/03/28 04:14:16;;;;;;;12.4;4.5;;;;;;;10.62;79.81;96183.333333333;;;;
2024/03/28 04:25:16;;;;;;;14.6;4.7;;;;;;;10.77;79.83;96190;;;;
2024/03/28 04:36:16;;;;;;;14.6;4.7;;;;;;;11.03;79.28;96196.666666667;;;;
2024/03/28 04:47:16;;;;;;;14.6;4.7;;;;;;;11.36;78.22;96200;;;;
2024/03/28 04:58:16;;;;;;;16.6;6.9;;;;;;;11.71;77.25;96198.333333333;;;;
2024/03/28 05:08:16;;;;;;;16.6;6.9;;;;;;;11.92;76.33;96228.333333333;;;;
2024/03/28 05:19:16;;;;;;;22.3;8.8;;;;;;;12.02;76.34;96256.666666667;;;;
2024/03/28 05:29:16;;;;;;;22.3;8.8;;;;;;;12.33;75.94;96251.666666667;;;;
2024/03/28 05:39:19;;;;;;;22.3;8.8;;;;;;;12.69;74.89;96220;;;;
2024/03/28 05:50:16;;;;;;;21;9.7;;;;;;;13.06;74.29;96208.333333333;;;;
2024/03/28 06:01:16;;;;;;;21;9.7;;;;;;;13.45;73.29;96218.333333333;;;;
2024/03/28 06:12:16;;;;;;;;;;;;;;;;;96220;;;;
2024/03/28 06:22:16;;;;;;;25.5;13.6;;;;;;;13.82;72.72;96228.333333333;;;;
2024/03/28 06:32:24;;;;;;;25.5;13.6;;;;;;;13.86;71.83;96216.666666667;;;;
2024/03/28 06:43:16;;;;;;;25.5;13.6;;;;;;;13.97;72.43;96251.666666667;;;;
2024/03/28 06:54:16;;;;;;;28.2;13.7;;;;;;;13.94;73.69;96268.333333333;;;;
2024/03/28 07:05:16;;;;;;;28.2;13.7;;;;;;;14.22;72.77;96268.333333333;;;;
2024/03/28 07:15:16;;;;;;;28.2;13.7;;;;;;;14.46;72.12;96291.666666667;;;;
2024/03/28 07:26:16;;;;;;;28.3;11.4;;;;;;;14.79;71.56;96286.666666667;;;;
2024/03/28 07:37:16;;;;;;;28.3;11.4;;;;;;;15.01;70.86;96275;;;;
2024/03/28 07:47:16;;;;;;;28.3;11.4;;;;;;;15.17;69.96;96281.666666667;;;;
2024/03/28 07:58:16;;;;;;;23.6;9.7;;;;;;;15.25;69.65;96296.666666667;;;;
2024/03/28 08:09:16;;;;;;;23.6;9.7;;;;;;;15.83;67.89;96300;;;;
2024/03/28 08:20:16;;;;;;;18.5;8.2;;;;;;;16.13;64.38;96291.666666667;;;;
2024/03/28 08:30:17;;;;;;;18.5;8.2;;;;;;;16.07;61.92;96298.333333333;;;;
2024/03/28 08:40:16;;;;;;;18.5;8.2;;;;;;;16.27;58.81;96291.666666667;;;;
2024/03/28 08:50:16;;;;;;;5.1;2.2;;;;;;;16.66;57.32;96313.333333333;;;;
2024/03/28 09:01:17;;;;;;;5.1;2.2;;;;;;;16.68;55.6;96348.333333333;;;;
2024/03/28 09:12:17;;;;;;;5.1;2.2;;;;;;;16.42;53.15;96380;;;;
2024/03/28 09:23:18;;;;;;;4.4;1.2;;;;;;;16.99;52.65;96391.666666667;;;;
2024/03/28 09:34:16;;;;;;;4.4;1.2;;;;;;;16.63;51.17;96410;;;;
2024/03/28 09:45:17;;;;;;;4.4;1.2;;;;;;;17.06;49.76;96406.666666667;;;;
2024/03/28 09:55:17;;;;;;;4.1;1;;;;;;;17.1;46.81;96428.333333333;;;;
2024/03/28 10:05:17;;;;;;;4.1;1;;;;;;;16.9;46.08;96445;;;;
2024/03/28 10:16:18;;;;;;;4.1;1;;;;;;;17.25;47.22;96468.333333333;;;;
2024/03/28 10:26:18;;;;;;;3.8;1.3;;;;;;;17.61;48.87;96496.666666667;;;;
2024/03/28 10:36:16;;;;;;;3.8;1.3;;;;;;;17.51;47.3;96501.666666667;;;;
2024/03/28 10:47:16;;;;;;;3.8;1.3;;;;;;;17.34;47.44;96518.333333333;;;;
2024/03/28 10:58:17;;;;;;;5.7;1.1;;;;;;;16.8;47.12;96518.333333333;;;;
2024/03/28 11:08:16;;;;;;;5.7;1.1;;;;;;;16.97;50.49;96533.333333333;;;;
2024/03/28 11:19:16;;;;;;;2.4;0.6;;;;;;;16.29;52.52;96551.666666667;;;;
2024/03/28 11:30:17;;;;;;;2.4;0.6;;;;;;;16.25;50.59;96568.333333333;;;;
2024/03/28 11:41:16;;;;;;;2.4;0.6;;;;;;;15.05;65.81;96585;;;;
2024/03/28 11:51:19;;;;;;;4.3;1.5;;;;;;;13.89;63.37;96600;;;;
2024/03/28 12:01:16;;;;;;;4.3;1.5;;;;;;;13.08;67.85;96620;;;;
2024/03/28 12:12:16;;;;;;;4.3;1.5;;;;;;;12.49;69.17;96618.333333333;;;;
2024/03/28 12:23:16;;;;;;;1.7;0.8;;;;;;;12.96;66.07;96623.333333333;;;;
2024/03/28 12:34:16;;;;;;;1.7;0.8;;;;;;;13.63;62.24;96651.666666667;;;;
2024/03/28 12:45:16;;;;;;;1.7;0.8;;;;;;;14.07;59.33;96658.333333333;;;;
2024/03/28 12:55:16;;;;;;;0.8;0.5;;;;;;;14.62;59.12;96651.666666667;;;;
2024/03/28 13:05:16;;;;;;;0.8;0.5;;;;;;;14.48;59.93;96675;;;;
2024/03/28 13:15:16;;;;;;;0.8;0.5;;;;;;;14.63;58.52;96668.333333333;;;;
2024/03/28 13:25:16;;;;;;;1.3;0.5;;;;;;;14.7;55.38;96698.333333333;;;;
2024/03/28 13:36:16;;;;;;;1.3;0.5;;;;;;;14.67;52.1;96725;;;;
2024/03/28 13:46:16;;;;;;;1.3;0.5;;;;;;;14.9;52.95;96720;;;;
2024/03/28 13:57:16;;;;;;;1.1;0.5;;;;;;;15.23;52.96;96736.666666667;;;;
2024/03/28 14:07:16;;;;;;;1.1;0.5;;;;;;;15.37;52.37;96741.666666667;;;;
2024/03/28 14:17:16;;;;;;;1.1;0.5;;;;;;;15.11;50.15;96735;;;;
2024/03/28 14:28:16;;;;;;;1.8;0.6;;;;;;;15.22;49.62;96715;;;;
2024/03/28 14:38:16;;;;;;;1.8;0.6;;;;;;;15.22;48.67;96711.666666667;;;;
2024/03/28 14:49:16;;;;;;;1.4;0.5;;;;;;;15.27;48.26;96718.333333333;;;;
2024/03/28 15:00:16;;;;;;;1.4;0.5;;;;;;;15.15;46.89;96728.333333333;;;;
2024/03/28 15:10:16;;;;;;;1.4;0.5;;;;;;;15.43;47.2;96735;;;;
2024/03/28 15:20:17;;;;;;;1.9;0.5;;;;;;;16.03;45.33;96755;;;;
2024/03/28 15:31:16;;;;;;;1.9;0.5;;;;;;;18.25;40.73;96758.333333333;;;;
2024/03/28 15:42:16;;;;;;;1.9;0.5;;;;;;;17.29;41.19;96778.333333333;;;;
2024/03/28 15:53:16;;;;;;;1.3;0.5;;;;;;;18.69;39.95;96781.666666667;;;;
2024/03/28 16:04:16;;;;;;;1.3;0.5;;;;;;;17.08;42.19;96796.666666667;;;;
2024/03/28 16:14:16;;;;;;;1.3;0.5;;;;;;;15.47;44.56;96813.333333333;;;;
2024/03/28 16:24:16;;;;;;;2;0.9;;;;;;;14.53;47.78;96821.666666667;;;;
2024/03/28 16:35:16;;;;;;;2;0.9;;;;;;;14.19;49.73;96835;;;;
2024/03/28 16:46:16;;;;;;;2;0.9;;;;;;;13.74;51.07;96845;;;;
2024/03/28 16:56:16;;;;;;;2.8;1.1;;;;;;;13.11;53.62;96841.666666667;;;;
2024/03/28 17:06:16;;;;;;;2.8;1.1;;;;;;;12.83;53.87;96855;;;;
2024/03/28 17:17:19;;;;;;;2.8;1.1;;;;;;;12.36;56.06;96865;;;;
2024/03/28 17:27:16;;;;;;;2.8;1.2;;;;;;;12.14;57.39;96865;;;;
2024/03/28 17:37:16;;;;;;;2.8;1.2;;;;;;;11.97;57.67;96866.666666667;;;;
2024/03/28 17:48:16;;;;;;;5.1;2.5;;;;;;;11.62;59.09;96866.666666667;;;;
2024/03/28 17:59:16;;;;;;;5.1;2.5;;;;;;;11.18;59.93;96865;;;;
2024/03/28 18:09:19;;;;;;;5.1;2.5;;;;;;;10.65;61.53;96871.666666667;;;;
2024/03/28 18:19:17;;;;;;;10.5;6;;;;;;;10.16;62.82;96876.666666667;;;;
2024/03/28 18:30:16;;;;;;;;;;;;;;;;;;;;;
2024/03/28 18:40:16;;;;;;;10.5;6;;;;;;;9.79;65.41;96890;;;;
2024/03/28 18:51:16;;;;;;;14.7;6.1;;;;;;;9.83;66.76;96900;;;;
2024/03/28 19:01:16;;;;;;;14.7;6.1;;;;;;;9.9;67.99;96908.333333333;;;;
2024/03/28 19:12:16;;;;;;;14.7;6.1;;;;;;;9.96;67.7;96908.333333333;;;;
2024/03/28 19:23:16;;;;;;;33.5;17.2;;;;;;;10.05;66.94;96918.333333333;;;;
2024/03/28 19:34:16;;;;;;;33.5;17.2;;;;;;;10.32;66.77;96910;;;;
2024/03/28 19:45:18;;;;;;;33.5;17.2;;;;;;;10.68;65.6;96893.333333333;;;;
2024/03/28 19:56:16;;;;;;;13;6.5;;;;;;;10.98;64.72;96888.333333333;;;;
2024/03/28 20:07:16;;;;;;;13;6.5;;;;;;;11.22;64.27;96903.333333333;;;;
2024/03/28 20:17:16;;;;;;;13;6.5;;;;;;;11.22;70.91;96903.333333333;;;;
2024/03/28 20:27:16;;;;;;;6.7;3.9;;;;;;;11.1;72.64;96900;;;;
2024/03/28 20:37:16;;;;;;;6.7;3.9;;;;;;;10.9;77.52;96870;;;;
2024/03/28 20:48:16;;;;;;;9.3;4.2;;;;;;;10.69;77.92;96881.666666667;;;;
2024/03/28 20:59:16;;;;;;;9.3;4.2;;;;;;;10.54;78.42;96896.666666667;;;;
2024/03/28 21:20:18;;;;;;;9.2;4.2;;;;;;;10.64;77.09;96898.333333333;;;;
2024/03/28 21:31:16;;;;;;;9.2;4.2;;;;;;;10.7;77.49;96920;;;;
2024/03/28 21:42:16;;;;;;;9.2;4.2;;;;;;;10.4;81.79;96916.666666667;;;;
2024/03/28 21:52:17;;;;;;;8.8;4.1;;;;;;;10.58;77.26;96915;;;;
2024/03/28 22:02:16;;;;;;;8.8;4.1;;;;;;;10.62;75.96;96910;;;;
2024/03/28 22:12:17;;;;;;;8.8;4.1;;;;;;;10.84;74.14;96933.333333333;;;;
2024/03/28 22:23:16;;;;;;;12.7;7.3;;;;;;;10.55;78.03;96991.666666667;;;;
2024/03/28 22:33:16;;;;;;;12.7;7.3;;;;;;;9.84;81.89;97066.666666667;;;;
2024/03/28 22:44:16;;;;;;;12.7;7.3;;;;;;;9.03;85.9;97113.333333333;;;;
2024/03/28 22:55:16;;;;;;;5.2;3;;;;;;;8.7;87.9;97136.666666667;;;;
2024/03/28 23:06:16;;;;;;;5.2;3;;;;;;;8.31;89.6;97180;;;;
2024/03/28 23:16:16;;;;;;;5.2;3;;;;;;;8.2;89.6;97215;;;;
2024/03/28 23:27:16;;;;;;;5.8;2.7;;;;;;;8.06;90.02;97246.666666667;;;;
2024/03/28 23:37:16;;;;;;;5.8;2.7;;;;;;;7.82;88.92;97278.333333333;;;;
2024/03/28 23:48:16;;;;;;;4.3;1.7;;;;;;;7.72;88.79;97326.666666667;;;;
2024/03/28 23:58:16;;;;;;;4.3;1.7;;;;;;;7.63;88.16;97356.666666667;;;;
